Time;durP1;ratioP1;P1;durP2;ratioP2;P2;SDS_P1;SDS_P2;PMS_P1;PMS_P2;Temp;Humidity;BMP_temperature;BMP_pressure;BME280_temperature;BME280_humidity;BME280_pressure;Samples;Min_cycle;Max_cycle;Signal;HPM_P1;HPM_P2
2022/01/14 00:00:57;;;;;;;;;;;19.70;35.40;;;;;;5092999;28;19912;-63
2022/01/14 00:03:22;;;;;;;;;;;19.70;35.40;;;;;;5092993;28;19950;-63
2022/01/14 00:05:48;;;;;;;;;;;19.70;35.40;;;;;;5092897;28;20340;-63
2022/01/14 00:08:13;;;;;;;;;;;19.70;35.40;;;;;;5095609;28;19988;-63
2022/01/14 00:10:41;;;;;;;;;;;19.70;35.40;;;;;;5096573;28;19977;-63
2022/01/14 00:13:16;;;;;;;;;;;19.70;35.40;;;;;;5096618;28;20371;-63
2022/01/14 00:15:41;;;;;;;;;;;19.60;35.40;;;;;;5096514;28;20052;-63
2022/01/14 00:18:07;;;;;;;;;;;19.60;35.40;;;;;;5096512;28;20355;-63
2022/01/14 00:20:33;;;;;;;;;;;19.60;35.40;;;;;;5096278;28;19939;-62
2022/01/14 00:22:59;;;;;;;;;;;19.60;35.40;;;;;;5096411;28;19908;-63
2022/01/14 00:33:28;;;;;;;;;;;19.60;35.40;;;;;;5096322;28;19916;-63
2022/01/14 00:35:54;;;;;;;;;;;19.60;35.40;;;;;;5096256;28;19912;-63
2022/01/14 00:38:19;;;;;;;;;;;19.50;35.40;;;;;;5096054;28;20371;-63
2022/01/14 00:40:45;;;;;;;;;;;19.50;35.40;;;;;;5096197;28;20348;-63
2022/01/14 00:43:10;;;;;;;;;;;19.50;35.40;;;;;;5096329;28;19908;-64
2022/01/14 00:45:36;;;;;;;;;;;19.50;35.40;;;;;;5096012;28;19915;-63
2022/01/14 00:48:02;;;;;;;;;;;19.50;35.40;;;;;;5095972;28;19908;-63
2022/01/14 00:50:28;;;;;;;;;;;19.50;35.40;;;;;;5095953;28;19939;-63
2022/01/14 00:52:53;;;;;;;;;;;19.50;35.40;;;;;;5095920;28;20364;-63
2022/01/14 00:55:27;;;;;;;;;;;19.50;35.40;;;;;;5095948;28;19994;-63
2022/01/14 01:00:34;;;;;;;;;;;19.50;35.40;;;;;;5095531;28;20011;-63
2022/01/14 01:03:00;;;;;;;;;;;19.50;35.40;;;;;;5095964;28;19946;-63
2022/01/14 01:05:26;;;;;;;;;;;19.50;35.50;;;;;;5095568;28;20023;-63
2022/01/14 01:08:13;;;;;;;;;;;19.40;35.50;;;;;;5095514;28;20374;-63
2022/01/14 01:10:47;;;;;;;;;;;19.40;35.40;;;;;;5095982;28;20003;-63
2022/01/14 01:13:20;;;;;;;;;;;19.40;35.50;;;;;;5095671;28;19946;-62
2022/01/14 01:15:46;;;;;;;;;;;19.40;35.50;;;;;;5095485;28;19908;-63
2022/01/14 01:18:11;;;;;;;;;;;19.40;35.50;;;;;;5095108;28;20011;-63
2022/01/14 01:20:37;;;;;;;;;;;19.40;35.40;;;;;;5077117;28;19927;-63
2022/01/14 01:23:04;;;;;;;;;;;19.40;35.40;;;;;;5095185;28;19908;-63
2022/01/14 01:25:37;;;;;;;;;;;19.40;35.40;;;;;;5095245;28;20355;-63
2022/01/14 01:28:03;;;;;;;;;;;19.40;35.40;;;;;;5095274;28;20287;-63
2022/01/14 01:32:54;;;;;;;;;;;19.40;35.40;;;;;;5095490;28;20270;-63
2022/01/14 01:35:20;;;;;;;;;;;19.40;35.40;;;;;;5095136;28;19908;-63
2022/01/14 01:37:45;;;;;;;;;;;19.40;35.40;;;;;;5094969;28;19908;-64
2022/01/14 01:40:11;;;;;;;;;;;19.30;35.40;;;;;;5094889;28;19924;-63
2022/01/14 01:42:39;;;;;;;;;;;19.30;35.40;;;;;;5095119;28;19919;-63
2022/01/14 01:45:09;;;;;;;;;;;19.30;35.40;;;;;;5095114;28;19969;-63
2022/01/14 01:47:35;;;;;;;;;;;19.30;35.40;;;;;;5076710;28;19948;-63
2022/01/14 01:50:07;;;;;;;;;;;19.30;35.40;;;;;;5094646;28;19916;-63
2022/01/14 01:52:33;;;;;;;;;;;19.30;35.50;;;;;;5076509;28;19908;-63
2022/01/14 01:54:58;;;;;;;;;;;19.30;35.50;;;;;;5094663;28;19908;-63
2022/01/14 01:57:24;;;;;;;;;;;19.30;35.40;;;;;;5094623;28;19916;-63
2022/01/14 01:59:49;;;;;;;;;;;19.30;35.50;;;;;;5094386;28;19920;-63
2022/01/14 02:02:15;;;;;;;;;;;19.30;35.40;;;;;;5094676;28;19908;-64
2022/01/14 02:04:40;;;;;;;;;;;19.20;35.40;;;;;;5094479;28;19908;-63
2022/01/14 02:07:06;;;;;;;;;;;19.30;35.50;;;;;;5076239;28;19956;-62
2022/01/14 02:09:31;;;;;;;;;;;19.20;35.50;;;;;;5094369;28;19908;-62
2022/01/14 02:11:57;;;;;;;;;;;19.20;35.40;;;;;;5094364;28;19913;-63
2022/01/14 02:14:53;;;;;;;;;;;19.20;35.40;;;;;;5094232;28;19908;-63
2022/01/14 02:22:48;;;;;;;;;;;19.20;35.40;;;;;;5094538;28;19931;-63
2022/01/14 02:25:15;;;;;;;;;;;19.20;35.40;;;;;;5094466;28;19915;-63
2022/01/14 02:27:41;;;;;;;;;;;19.20;35.50;;;;;;5094060;28;20286;-63
2022/01/14 02:30:07;;;;;;;;;;;19.20;35.50;;;;;;5093455;28;20002;-62
2022/01/14 02:32:32;;;;;;;;;;;19.20;35.50;;;;;;5093934;28;19914;-63
2022/01/14 02:34:57;;;;;;;;;;;19.20;35.50;;;;;;5093903;28;19934;-63
2022/01/14 02:37:23;;;;;;;;;;;19.10;35.50;;;;;;5075814;28;19908;-63
2022/01/14 02:39:48;;;;;;;;;;;19.10;35.50;;;;;;5094110;28;19922;-63
2022/01/14 02:42:14;;;;;;;;;;;19.10;35.40;;;;;;5075685;28;19946;-63
2022/01/14 02:44:39;;;;;;;;;;;19.10;35.50;;;;;;5093761;28;19986;-63
2022/01/14 02:47:06;;;;;;;;;;;19.10;35.40;;;;;;5094002;28;19946;-63
2022/01/14 02:49:33;;;;;;;;;;;19.10;35.40;;;;;;5093810;28;19908;-63
2022/01/14 02:52:02;;;;;;;;;;;19.20;35.40;;;;;;5093766;28;19969;-63
2022/01/14 02:54:32;;;;;;;;;;;19.10;35.40;;;;;;5093879;28;19912;-64
2022/01/14 02:56:57;;;;;;;;;;;19.20;35.50;;;;;;5093525;28;20287;-63
2022/01/14 02:59:23;;;;;;;;;;;19.10;35.40;;;;;;5093292;28;19920;-64
2022/01/14 03:01:50;;;;;;;;;;;19.10;35.40;;;;;;5093064;28;21211;-63
2022/01/14 03:04:17;;;;;;;;;;;19.10;35.40;;;;;;5093503;28;19948;-63
2022/01/14 03:06:43;;;;;;;;;;;19.10;35.40;;;;;;5093556;28;19953;-63
2022/01/14 03:09:09;;;;;;;;;;;19.10;35.50;;;;;;5093478;28;19912;-63
2022/01/14 03:11:35;;;;;;;;;;;19.10;35.50;;;;;;5093651;28;20002;-63
2022/01/14 03:14:02;;;;;;;;;;;19.10;35.50;;;;;;5093498;28;20363;-63
2022/01/14 03:16:29;;;;;;;;;;;19.10;35.50;;;;;;5093423;28;19966;-63
2022/01/14 03:19:04;;;;;;;;;;;19.00;35.40;;;;;;5093744;28;19916;-63
2022/01/14 03:21:36;;;;;;;;;;;19.00;35.40;;;;;;5093545;28;19912;-64
2022/01/14 03:24:13;;;;;;;;;;;19.10;35.50;;;;;;5093580;28;19909;-63
2022/01/14 03:26:39;;;;;;;;;;;19.10;35.40;;;;;;5093436;28;19950;-63
2022/01/14 03:29:04;;;;;;;;;;;19.00;35.50;;;;;;5093355;28;19920;-63
2022/01/14 03:31:29;;;;;;;;;;;19.00;35.50;;;;;;5093376;28;20020;-63
2022/01/14 03:33:55;;;;;;;;;;;19.10;35.50;;;;;;5093329;28;19909;-63
2022/01/14 03:36:20;;;;;;;;;;;19.00;35.50;;;;;;5093292;28;19949;-63
2022/01/14 03:38:46;;;;;;;;;;;19.00;35.50;;;;;;5093180;28;19923;-63
2022/01/14 03:41:11;;;;;;;;;;;19.00;35.50;;;;;;5094431;28;19912;-62
2022/01/14 03:43:38;;;;;;;;;;;19.00;35.50;;;;;;5079212;28;19919;-63
2022/01/14 03:46:04;;;;;;;;;;;19.00;35.50;;;;;;5097201;28;20279;-63
2022/01/14 03:48:29;;;;;;;;;;;19.00;35.50;;;;;;5097179;28;19915;-63
2022/01/14 03:50:55;;;;;;;;;;;19.00;35.50;;;;;;5097104;28;19954;-63
2022/01/14 03:53:20;;;;;;;;;;;19.00;35.50;;;;;;5097279;28;19914;-63
2022/01/14 03:55:46;;;;;;;;;;;19.00;35.50;;;;;;5096994;28;19908;-62
2022/01/14 03:58:11;;;;;;;;;;;19.00;35.50;;;;;;5096969;28;20287;-63
2022/01/14 04:00:37;;;;;;;;;;;19.00;35.50;;;;;;5096639;28;19924;-64
2022/01/14 04:03:03;;;;;;;;;;;19.00;35.50;;;;;;5096862;28;20283;-63
2022/01/14 04:05:29;;;;;;;;;;;19.00;35.50;;;;;;5096806;28;19915;-62
2022/01/14 04:07:55;;;;;;;;;;;19.00;35.50;;;;;;5096980;28;19908;-63
2022/01/14 04:10:21;;;;;;;;;;;19.00;35.50;;;;;;5096723;28;20136;-63
2022/01/14 04:13:13;;;;;;;;;;;19.00;35.50;;;;;;5096671;28;19912;-63
2022/01/14 04:15:38;;;;;;;;;;;19.00;35.50;;;;;;5096014;28;20323;-63
2022/01/14 04:18:03;;;;;;;;;;;19.00;35.50;;;;;;5078418;28;19912;-62
2022/01/14 04:20:29;;;;;;;;;;;19.00;35.50;;;;;;5096743;28;19985;-63
2022/01/14 04:22:54;;;;;;;;;;;19.00;35.50;;;;;;5096441;28;19909;-63
2022/01/14 04:25:20;;;;;;;;;;;19.00;35.50;;;;;;5096469;28;19909;-63
2022/01/14 04:27:46;;;;;;;;;;;19.00;35.50;;;;;;5096372;28;19912;-63
2022/01/14 04:30:11;;;;;;;;;;;18.90;35.50;;;;;;5096323;28;19908;-63
2022/01/14 04:32:37;;;;;;;;;;;18.90;35.50;;;;;;5096195;28;19965;-62
2022/01/14 04:35:02;;;;;;;;;;;18.90;35.50;;;;;;5096242;28;19912;-63
2022/01/14 04:37:28;;;;;;;;;;;18.90;35.60;;;;;;5096197;28;19970;-62
2022/01/14 04:39:53;;;;;;;;;;;18.90;35.60;;;;;;5096136;28;20373;-63
2022/01/14 04:42:18;;;;;;;;;;;18.90;35.60;;;;;;5096157;28;20398;-63
2022/01/14 04:44:44;;;;;;;;;;;18.90;35.50;;;;;;5096179;28;19961;-63
2022/01/14 04:47:18;;;;;;;;;;;18.90;35.60;;;;;;5095933;28;19908;-63
2022/01/14 04:49:44;;;;;;;;;;;18.90;35.60;;;;;;5096267;28;19990;-63
2022/01/14 04:52:09;;;;;;;;;;;18.90;35.50;;;;;;5095911;28;19912;-63
2022/01/14 04:54:35;;;;;;;;;;;18.90;35.60;;;;;;5095575;28;19908;-63
2022/01/14 04:57:01;;;;;;;;;;;18.90;35.50;;;;;;5095860;28;19908;-63
2022/01/14 04:59:26;;;;;;;;;;;18.80;35.60;;;;;;5095605;28;19920;-63
2022/01/14 05:01:52;;;;;;;;;;;18.90;35.60;;;;;;5077336;28;19909;-63
2022/01/14 05:04:17;;;;;;;;;;;18.80;35.60;;;;;;5095404;28;19908;-63
2022/01/14 05:06:47;;;;;;;;;;;18.90;35.60;;;;;;5095770;28;19908;-63
2022/01/14 05:09:23;;;;;;;;;;;18.90;35.60;;;;;;5095379;28;19915;-63
2022/01/14 05:11:54;;;;;;;;;;;18.90;35.60;;;;;;5077194;28;19969;-64
2022/01/14 05:14:19;;;;;;;;;;;18.90;35.60;;;;;;5095356;28;19958;-63
2022/01/14 05:16:45;;;;;;;;;;;18.90;35.50;;;;;;5095342;28;19908;-63
2022/01/14 05:19:11;;;;;;;;;;;18.90;35.50;;;;;;5076965;28;19916;-62
2022/01/14 05:21:36;;;;;;;;;;;18.90;35.50;;;;;;5077068;28;19919;-63
2022/01/14 05:24:02;;;;;;;;;;;18.90;35.50;;;;;;5077013;28;19958;-63
2022/01/14 05:26:27;;;;;;;;;;;18.90;35.50;;;;;;5095104;28;20275;-63
2022/01/14 05:28:52;;;;;;;;;;;19.00;35.40;;;;;;5076766;28;19908;-63
2022/01/14 05:31:18;;;;;;;;;;;19.00;35.40;;;;;;5076822;28;19916;-63
2022/01/14 05:33:46;;;;;;;;;;;19.00;35.40;;;;;;5094946;28;19908;-63
2022/01/14 05:36:12;;;;;;;;;;;19.00;35.40;;;;;;5094984;28;19946;-63
2022/01/14 05:38:37;;;;;;;;;;;19.10;35.30;;;;;;5076643;28;19958;-63
2022/01/14 05:41:03;;;;;;;;;;;19.10;35.30;;;;;;5094984;28;19915;-63
2022/01/14 05:43:28;;;;;;;;;;;19.10;35.20;;;;;;5094996;28;19909;-63
2022/01/14 05:45:53;;;;;;;;;;;19.20;35.20;;;;;;5094741;28;20363;-63
2022/01/14 05:48:19;;;;;;;;;;;19.20;35.20;;;;;;5094878;28;19931;-63
2022/01/14 05:50:44;;;;;;;;;;;19.20;35.20;;;;;;5094701;28;19914;-64
2022/01/14 05:53:10;;;;;;;;;;;19.20;35.20;;;;;;5094608;28;19915;-64
2022/01/14 05:55:35;;;;;;;;;;;19.20;35.10;;;;;;5094517;28;19912;-63
2022/01/14 05:58:01;;;;;;;;;;;19.20;35.10;;;;;;5094458;28;19955;-62
2022/01/14 06:00:27;;;;;;;;;;;19.20;35.10;;;;;;5094068;28;19971;-64
2022/01/14 06:02:52;;;;;;;;;;;19.30;35.10;;;;;;5094438;28;20287;-63
2022/01/14 06:05:18;;;;;;;;;;;19.30;35.10;;;;;;5093509;28;20003;-63
2022/01/14 06:07:44;;;;;;;;;;;19.30;35.10;;;;;;5094662;28;19916;-63
2022/01/14 06:10:09;;;;;;;;;;;19.30;35.10;;;;;;5094255;28;20363;-63
2022/01/14 06:12:35;;;;;;;;;;;19.30;35.10;;;;;;5094063;28;19947;-62
2022/01/14 06:15:01;;;;;;;;;;;19.30;35.00;;;;;;5094148;28;19908;-63
2022/01/14 06:17:26;;;;;;;;;;;19.30;35.10;;;;;;5094108;28;19912;-62
2022/01/14 06:19:52;;;;;;;;;;;19.40;35.00;;;;;;5094021;28;19923;-64
2022/01/14 06:22:17;;;;;;;;;;;19.40;35.10;;;;;;5094230;28;20386;-63
2022/01/14 06:24:45;;;;;;;;;;;19.40;35.10;;;;;;5094179;28;20471;-63
2022/01/14 06:27:11;;;;;;;;;;;19.40;35.00;;;;;;5094080;28;20299;-63
2022/01/14 06:29:36;;;;;;;;;;;19.40;35.00;;;;;;5094075;28;19912;-63
2022/01/14 06:32:02;;;;;;;;;;;19.40;35.00;;;;;;5094037;28;20364;-62
2022/01/14 06:34:27;;;;;;;;;;;19.50;35.00;;;;;;5093853;28;20390;-63
2022/01/14 06:36:53;;;;;;;;;;;19.50;35.00;;;;;;5093743;28;19922;-63
2022/01/14 06:39:19;;;;;;;;;;;19.50;35.00;;;;;;5093768;28;19924;-63
2022/01/14 06:41:44;;;;;;;;;;;19.50;35.00;;;;;;5093773;28;20291;-63
2022/01/14 06:44:09;;;;;;;;;;;19.50;35.00;;;;;;5093806;28;19954;-63
2022/01/14 06:46:35;;;;;;;;;;;19.50;35.00;;;;;;5093775;28;20356;-62
2022/01/14 06:49:00;;;;;;;;;;;19.50;35.00;;;;;;5075691;28;20271;-63
2022/01/14 06:51:26;;;;;;;;;;;19.50;35.00;;;;;;5093745;28;19908;-64
2022/01/14 06:53:51;;;;;;;;;;;19.50;35.00;;;;;;5093732;28;19942;-63
2022/01/14 06:56:17;;;;;;;;;;;19.50;35.00;;;;;;5093568;28;19946;-63
2022/01/14 06:58:43;;;;;;;;;;;19.50;35.00;;;;;;5093598;28;20007;-63
2022/01/14 07:01:08;;;;;;;;;;;19.50;35.00;;;;;;5075768;28;20431;-62
2022/01/14 07:03:34;;;;;;;;;;;19.50;35.00;;;;;;5093555;28;19908;-63
2022/01/14 07:05:59;;;;;;;;;;;19.50;35.00;;;;;;5093486;28;19953;-63
2022/01/14 07:08:25;;;;;;;;;;;19.50;35.00;;;;;;5093541;28;19998;-63
2022/01/14 07:10:50;;;;;;;;;;;19.60;35.00;;;;;;5093489;28;20360;-63
2022/01/14 07:13:16;;;;;;;;;;;19.50;35.00;;;;;;5093510;28;19930;-63
2022/01/14 07:15:41;;;;;;;;;;;19.60;35.00;;;;;;5094049;28;20363;-62
2022/01/14 07:18:07;;;;;;;;;;;19.60;35.00;;;;;;5097687;28;19912;-63
2022/01/14 07:20:32;;;;;;;;;;;19.60;34.90;;;;;;5097577;28;19916;-63
2022/01/14 07:22:58;;;;;;;;;;;19.60;35.00;;;;;;5097532;28;20327;-63
2022/01/14 07:25:23;;;;;;;;;;;19.60;35.00;;;;;;5097576;28;19908;-62
2022/01/14 07:27:49;;;;;;;;;;;19.60;35.00;;;;;;5097532;28;19908;-64
2022/01/14 07:30:15;;;;;;;;;;;19.60;35.00;;;;;;5097754;28;19908;-63
2022/01/14 07:32:41;;;;;;;;;;;19.70;35.00;;;;;;5097000;28;19942;-63
2022/01/14 07:35:06;;;;;;;;;;;19.60;35.00;;;;;;5097338;28;19908;-63
2022/01/14 07:37:32;;;;;;;;;;;19.60;35.00;;;;;;5097309;28;19908;-63
2022/01/14 07:39:57;;;;;;;;;;;19.60;35.00;;;;;;5097355;28;20282;-64
2022/01/14 07:42:23;;;;;;;;;;;19.60;35.00;;;;;;5097203;28;19912;-63
2022/01/14 07:44:48;;;;;;;;;;;19.70;35.00;;;;;;5079135;28;19908;-63
2022/01/14 07:47:14;;;;;;;;;;;19.70;35.00;;;;;;5078927;28;19908;-63
2022/01/14 07:49:39;;;;;;;;;;;19.70;34.90;;;;;;5097145;28;19912;-63
2022/01/14 07:52:04;;;;;;;;;;;19.70;35.00;;;;;;5097063;28;20004;-63
2022/01/14 07:54:30;;;;;;;;;;;19.70;34.90;;;;;;5096966;28;19955;-63
2022/01/14 07:56:58;;;;;;;;;;;19.70;35.00;;;;;;5096897;28;19934;-63
2022/01/14 07:59:25;;;;;;;;;;;19.70;34.90;;;;;;5096761;28;19920;-63
2022/01/14 08:01:51;;;;;;;;;;;19.70;34.90;;;;;;5096927;28;19908;-64
2022/01/14 08:04:18;;;;;;;;;;;19.70;34.90;;;;;;5096728;28;19909;-63
2022/01/14 08:06:47;;;;;;;;;;;19.80;34.90;;;;;;5096853;28;20018;-64
2022/01/14 08:09:13;;;;;;;;;;;19.80;35.00;;;;;;5096783;28;20015;-63
2022/01/14 08:11:38;;;;;;;;;;;19.80;34.90;;;;;;5096843;28;19953;-64
2022/01/14 08:14:05;;;;;;;;;;;19.80;35.00;;;;;;5096669;28;19908;-63
2022/01/14 08:16:30;;;;;;;;;;;19.80;34.90;;;;;;5096500;28;19931;-63
2022/01/14 08:18:56;;;;;;;;;;;19.80;34.90;;;;;;5078423;28;19924;-63
2022/01/14 08:21:21;;;;;;;;;;;19.80;34.90;;;;;;5096740;28;19908;-63
2022/01/14 08:23:47;;;;;;;;;;;19.80;34.90;;;;;;5096266;28;19912;-62
2022/01/14 08:26:12;;;;;;;;;;;19.80;35.00;;;;;;5096390;28;19958;-63
2022/01/14 08:28:38;;;;;;;;;;;19.90;35.00;;;;;;5095208;28;19908;-63
2022/01/14 08:31:03;;;;;;;;;;;19.80;34.90;;;;;;5096253;28;19908;-63
2022/01/14 08:33:29;;;;;;;;;;;19.80;34.90;;;;;;5078116;28;19909;-63
2022/01/14 08:35:54;;;;;;;;;;;19.90;34.90;;;;;;5096064;28;20342;-64
2022/01/14 08:38:21;;;;;;;;;;;19.80;34.90;;;;;;5096140;28;20427;-63
2022/01/14 08:40:47;;;;;;;;;;;19.80;34.90;;;;;;5096166;28;19995;-63
2022/01/14 08:43:12;;;;;;;;;;;19.90;34.90;;;;;;5095991;28;20433;-62
2022/01/14 08:45:37;;;;;;;;;;;19.90;34.90;;;;;;5095977;28;20007;-64
2022/01/14 08:48:03;;;;;;;;;;;19.90;34.90;;;;;;5095863;28;20378;-63
2022/01/14 08:50:31;;;;;;;;;;;19.90;34.90;;;;;;5095827;28;20431;-63
2022/01/14 08:52:58;;;;;;;;;;;20.00;34.90;;;;;;5095815;28;19908;-63
2022/01/14 08:55:23;;;;;;;;;;;19.90;34.90;;;;;;5095824;28;20410;-63
2022/01/14 08:57:49;;;;;;;;;;;19.90;34.90;;;;;;5095839;28;19944;-62
2022/01/14 09:00:16;;;;;;;;;;;19.90;34.90;;;;;;5095350;28;20371;-63
2022/01/14 09:02:42;;;;;;;;;;;20.00;34.90;;;;;;5095589;28;19908;-63
2022/01/14 09:05:08;;;;;;;;;;;20.00;34.90;;;;;;5095779;28;19957;-63
2022/01/14 09:07:34;;;;;;;;;;;20.00;34.90;;;;;;5095475;28;20364;-62
2022/01/14 09:09:59;;;;;;;;;;;19.90;34.90;;;;;;5095508;28;19916;-64
2022/01/14 09:12:25;;;;;;;;;;;20.00;34.90;;;;;;5095508;28;19908;-63
2022/01/14 09:14:50;;;;;;;;;;;20.00;34.90;;;;;;5095420;28;20367;-63
2022/01/14 09:17:17;;;;;;;;;;;20.00;34.90;;;;;;5095331;28;19908;-63
2022/01/14 09:19:43;;;;;;;;;;;20.00;34.90;;;;;;5095202;28;19918;-63
2022/01/14 09:22:09;;;;;;;;;;;20.00;34.90;;;;;;5094889;28;19915;-63
2022/01/14 09:24:35;;;;;;;;;;;20.00;34.90;;;;;;5077206;28;19908;-64
2022/01/14 09:27:00;;;;;;;;;;;20.00;34.90;;;;;;5095085;28;19908;-63
2022/01/14 09:29:25;;;;;;;;;;;20.00;34.90;;;;;;5095146;28;19998;-63
2022/01/14 09:31:51;;;;;;;;;;;20.00;34.90;;;;;;5094935;28;20302;-63
2022/01/14 09:34:17;;;;;;;;;;;20.00;34.90;;;;;;5094733;28;19908;-63
2022/01/14 09:36:42;;;;;;;;;;;20.00;34.90;;;;;;5094896;28;20002;-62
2022/01/14 09:39:08;;;;;;;;;;;20.00;34.90;;;;;;5094445;28;20283;-62
2022/01/14 09:41:34;;;;;;;;;;;20.10;34.90;;;;;;5094741;28;19958;-63
2022/01/14 09:44:01;;;;;;;;;;;20.00;34.90;;;;;;5094702;28;20391;-63
2022/01/14 09:46:26;;;;;;;;;;;20.00;34.90;;;;;;5094723;28;19965;-63
2022/01/14 09:48:52;;;;;;;;;;;20.10;34.90;;;;;;5094681;28;19908;-63
2022/01/14 09:51:18;;;;;;;;;;;20.10;34.90;;;;;;5094548;28;19912;-63
2022/01/14 09:53:43;;;;;;;;;;;20.10;34.90;;;;;;5076426;28;19915;-63
2022/01/14 09:56:09;;;;;;;;;;;20.10;34.90;;;;;;5094405;28;19950;-63
2022/01/14 09:58:37;;;;;;;;;;;20.10;34.90;;;;;;5094332;28;19908;-63
2022/01/14 10:01:22;;;;;;;;;;;20.10;34.90;;;;;;5094611;28;19916;-63
2022/01/14 10:03:52;;;;;;;;;;;20.10;34.90;;;;;;5076067;28;19912;-64
2022/01/14 10:06:56;;;;;;;;;;;20.10;34.90;;;;;;5094488;28;19989;-64
2022/01/14 10:09:29;;;;;;;;;;;20.10;34.90;;;;;;5031927;28;19916;-63
2022/01/14 10:11:57;;;;;;;;;;;20.10;34.90;;;;;;5031926;28;19996;-64
2022/01/14 10:14:23;;;;;;;;;;;20.10;34.90;;;;;;5064777;28;20347;-63
2022/01/14 10:17:03;;;;;;;;;;;20.10;34.90;;;;;;5094319;28;19908;-63
2022/01/14 10:19:29;;;;;;;;;;;20.20;34.90;;;;;;5093945;28;20294;-63
2022/01/14 10:21:55;;;;;;;;;;;20.20;34.90;;;;;;5075664;28;19908;-63
2022/01/14 10:24:22;;;;;;;;;;;20.20;34.90;;;;;;5093885;28;20301;-63
2022/01/14 10:26:49;;;;;;;;;;;20.20;34.90;;;;;;5075694;28;19912;-63
2022/01/14 10:29:14;;;;;;;;;;;20.20;34.90;;;;;;5093950;28;19961;-63
2022/01/14 10:31:42;;;;;;;;;;;20.20;34.90;;;;;;5094035;28;19912;-63
2022/01/14 10:34:11;;;;;;;;;;;20.20;34.90;;;;;;5093872;28;19908;-63
2022/01/14 10:36:37;;;;;;;;;;;20.20;34.90;;;;;;5094015;28;19914;-63
2022/01/14 10:39:16;;;;;;;;;;;20.20;34.90;;;;;;5093692;28;19949;-63
2022/01/14 10:41:42;;;;;;;;;;;20.20;34.90;;;;;;5093715;28;20364;-63
2022/01/14 10:44:28;;;;;;;;;;;20.30;34.80;;;;;;5093819;28;19912;-64
2022/01/14 10:47:09;;;;;;;;;;;20.20;34.90;;;;;;5093640;28;19916;-63
2022/01/14 10:49:35;;;;;;;;;;;20.30;34.90;;;;;;5093595;28;19954;-63
2022/01/14 10:52:11;;;;;;;;;;;20.30;34.80;;;;;;5093069;28;19947;-63
2022/01/14 10:54:41;;;;;;;;;;;20.20;34.90;;;;;;5093945;28;19908;-62
2022/01/14 10:57:13;;;;;;;;;;;20.30;34.90;;;;;;5093592;28;19908;-63
2022/01/14 10:59:38;;;;;;;;;;;20.30;34.90;;;;;;5093459;28;19924;-63
2022/01/14 11:02:23;;;;;;;;;;;20.20;34.90;;;;;;5093318;28;19969;-62
2022/01/14 11:05:01;;;;;;;;;;;20.30;34.90;;;;;;5093188;28;20271;-63
2022/01/14 11:07:26;;;;;;;;;;;20.30;34.80;;;;;;5093181;28;19908;-64
2022/01/14 11:09:52;;;;;;;;;;;20.30;34.90;;;;;;5093390;28;19908;-63
2022/01/14 11:12:18;;;;;;;;;;;20.30;34.90;;;;;;5093381;28;19919;-63
2022/01/14 11:14:44;;;;;;;;;;;20.30;34.90;;;;;;5093259;28;19908;-63
2022/01/14 11:17:10;;;;;;;;;;;20.30;34.90;;;;;;5075303;28;19908;-63
2022/01/14 11:19:35;;;;;;;;;;;20.30;34.90;;;;;;5093411;28;19913;-63
2022/01/14 11:24:46;;;;;;;;;;;20.30;34.90;;;;;;5093715;28;20023;-63
2022/01/14 11:27:13;;;;;;;;;;;20.30;34.90;;;;;;5093216;28;20036;-62
2022/01/14 11:29:43;;;;;;;;;;;20.30;34.90;;;;;;5093544;28;19935;-63
2022/01/14 11:32:08;;;;;;;;;;;20.40;34.90;;;;;;5093286;28;19915;-63
2022/01/14 11:34:37;;;;;;;;;;;20.40;34.90;;;;;;5075035;28;19915;-63
2022/01/14 11:37:06;;;;;;;;;;;20.40;34.90;;;;;;5093205;28;19908;-63
2022/01/14 11:39:34;;;;;;;;;;;20.40;34.90;;;;;;5092999;28;19921;-63
2022/01/14 11:42:04;;;;;;;;;;;20.40;34.90;;;;;;5093023;28;19908;-62
2022/01/14 11:44:42;;;;;;;;;;;20.40;34.90;;;;;;5093029;28;19962;-64
2022/01/14 11:47:08;;;;;;;;;;;20.40;34.80;;;;;;5093033;28;19923;-63
2022/01/14 11:49:35;;;;;;;;;;;20.40;34.90;;;;;;5092987;28;19954;-63
2022/01/14 11:52:03;;;;;;;;;;;20.40;34.90;;;;;;5092929;28;19908;-63
2022/01/14 11:54:38;;;;;;;;;;;20.40;34.80;;;;;;5092855;28;19916;-63
2022/01/14 11:57:04;;;;;;;;;;;20.40;34.90;;;;;;5092922;28;19915;-63
2022/01/14 11:59:29;;;;;;;;;;;20.40;34.90;;;;;;5092681;28;19921;-64
2022/01/14 12:01:55;;;;;;;;;;;20.40;34.80;;;;;;5093741;28;20427;-63
2022/01/14 12:04:21;;;;;;;;;;;20.50;34.90;;;;;;5078570;28;19946;-63
2022/01/14 12:06:50;;;;;;;;;;;20.40;34.90;;;;;;5096458;28;19949;-63
2022/01/14 12:09:19;;;;;;;;;;;20.40;34.80;;;;;;5096763;28;19908;-62
2022/01/14 12:11:44;;;;;;;;;;;20.40;34.90;;;;;;5096411;28;19916;-63
2022/01/14 12:14:11;;;;;;;;;;;20.50;34.90;;;;;;5096596;28;19908;-63
2022/01/14 12:16:45;;;;;;;;;;;20.50;34.90;;;;;;5078119;28;19908;-64
2022/01/14 12:19:13;;;;;;;;;;;20.50;34.90;;;;;;5096325;28;19935;-63
2022/01/14 12:21:44;;;;;;;;;;;20.40;34.90;;;;;;5096565;28;19924;-63
2022/01/14 12:24:19;;;;;;;;;;;20.40;34.90;;;;;;5096479;28;19931;-64
2022/01/14 12:27:17;;;;;;;;;;;20.50;34.90;;;;;;5096098;28;19916;-63
2022/01/14 12:29:45;;;;;;;;;;;20.50;34.90;;;;;;5096128;28;19970;-63
2022/01/14 12:32:11;;;;;;;;;;;20.50;34.90;;;;;;5096404;28;19908;-62
2022/01/14 12:34:40;;;;;;;;;;;20.50;34.90;;;;;;5096322;28;19908;-64
2022/01/14 12:37:06;;;;;;;;;;;20.50;34.90;;;;;;5096075;28;19916;-63
2022/01/14 12:39:32;;;;;;;;;;;20.50;34.90;;;;;;5096019;28;19967;-64
2022/01/14 12:41:58;;;;;;;;;;;20.50;34.90;;;;;;5095985;28;20038;-63
2022/01/14 12:44:24;;;;;;;;;;;20.50;34.90;;;;;;5095802;28;19908;-63
2022/01/14 12:47:05;;;;;;;;;;;20.50;34.90;;;;;;5096019;28;19908;-63
2022/01/14 12:49:33;;;;;;;;;;;20.50;34.90;;;;;;5095737;28;19915;-63
2022/01/14 12:52:09;;;;;;;;;;;20.50;34.90;;;;;;5095745;28;20355;-63
2022/01/14 12:54:36;;;;;;;;;;;20.50;34.90;;;;;;5095856;28;19938;-62
2022/01/14 12:57:02;;;;;;;;;;;20.50;34.90;;;;;;5095711;28;19908;-63
2022/01/14 12:59:36;;;;;;;;;;;20.50;34.80;;;;;;5077071;28;19931;-62
2022/01/14 13:02:02;;;;;;;;;;;20.50;34.90;;;;;;5095632;28;19908;-64
2022/01/14 13:04:28;;;;;;;;;;;20.50;34.90;;;;;;5095417;28;19970;-64
2022/01/14 13:06:55;;;;;;;;;;;20.50;34.90;;;;;;5095518;28;20371;-64
2022/01/14 13:09:24;;;;;;;;;;;20.60;34.90;;;;;;5095353;28;19908;-63
2022/01/14 13:11:55;;;;;;;;;;;20.50;34.90;;;;;;5095461;28;19912;-63
2022/01/14 13:14:29;;;;;;;;;;;20.50;34.90;;;;;;5094946;28;20220;-62
2022/01/14 13:16:55;;;;;;;;;;;20.50;34.90;;;;;;5095446;28;20303;-63
2022/01/14 13:19:21;;;;;;;;;;;20.50;34.90;;;;;;5077130;28;19912;-63
2022/01/14 13:21:47;;;;;;;;;;;20.60;34.90;;;;;;5095313;28;19922;-63
2022/01/14 13:24:19;;;;;;;;;;;20.60;34.90;;;;;;5095605;28;19908;-63
2022/01/14 13:26:56;;;;;;;;;;;20.60;34.90;;;;;;5076949;28;19915;-63
2022/01/14 13:29:21;;;;;;;;;;;20.60;34.90;;;;;;5095162;28;19953;-64
2022/01/14 13:31:47;;;;;;;;;;;20.60;34.90;;;;;;5076808;28;20326;-63
2022/01/14 13:34:13;;;;;;;;;;;20.60;34.90;;;;;;5094927;28;19908;-62
2022/01/14 13:36:38;;;;;;;;;;;20.60;34.90;;;;;;5076799;28;19950;-63
2022/01/14 13:39:10;;;;;;;;;;;20.60;34.90;;;;;;5094899;28;19955;-63
2022/01/14 13:41:39;;;;;;;;;;;20.60;34.90;;;;;;5094895;28;20367;-63
2022/01/14 13:44:15;;;;;;;;;;;20.60;34.90;;;;;;5094901;28;19911;-63
2022/01/14 13:46:45;;;;;;;;;;;20.60;34.90;;;;;;5076470;28;19908;-63
2022/01/14 13:49:11;;;;;;;;;;;20.60;34.90;;;;;;5094611;28;19915;-63
2022/01/14 13:51:38;;;;;;;;;;;20.60;34.90;;;;;;5094794;28;19942;-63
2022/01/14 13:54:03;;;;;;;;;;;20.60;34.90;;;;;;5094647;28;19908;-63
2022/01/14 13:56:29;;;;;;;;;;;20.60;34.90;;;;;;5094728;28;19908;-64
2022/01/14 13:58:58;;;;;;;;;;;20.60;34.90;;;;;;5094629;28;19916;-63
2022/01/14 14:01:24;;;;;;;;;;;20.60;34.90;;;;;;5094582;28;19908;-63
2022/01/14 14:04:04;;;;;;;;;;;20.60;34.90;;;;;;5076439;28;19931;-63
2022/01/14 14:06:43;;;;;;;;;;;20.70;34.90;;;;;;5094611;28;19951;-63
2022/01/14 14:09:24;;;;;;;;;;;20.70;34.90;;;;;;5094688;28;19912;-63
2022/01/14 14:12:09;;;;;;;;;;;20.70;34.90;;;;;;5094249;28;19908;-63
2022/01/14 14:17:18;;;;;;;;;;;20.70;34.90;;;;;;5094498;28;19953;-63
2022/01/14 14:19:44;;;;;;;;;;;20.70;34.90;;;;;;5094107;28;20364;-63
2022/01/14 14:22:09;;;;;;;;;;;20.70;34.90;;;;;;5076025;28;19908;-62
2022/01/14 14:24:35;;;;;;;;;;;20.70;35.00;;;;;;5075926;28;19908;-63
2022/01/14 14:27:16;;;;;;;;;;;20.70;34.90;;;;;;5093133;28;19939;-62
2022/01/14 14:29:46;;;;;;;;;;;20.70;34.90;;;;;;5094157;28;19919;-63
2022/01/14 14:32:21;;;;;;;;;;;20.70;34.90;;;;;;5093795;28;19953;-63
2022/01/14 14:34:47;;;;;;;;;;;20.70;34.90;;;;;;5094084;28;19912;-63
2022/01/14 14:37:13;;;;;;;;;;;20.70;34.90;;;;;;5094032;28;19916;-63
2022/01/14 14:39:38;;;;;;;;;;;20.70;34.90;;;;;;5093778;28;19916;-63
2022/01/14 14:42:04;;;;;;;;;;;20.70;34.90;;;;;;5093779;28;19908;-63